createdAt,value
2016-11-12T17:21:57.656Z,3.95
2016-11-12T17:22:57.232Z,3.9
2016-11-12T17:23:58.327Z,4
2016-11-12T17:24:58.244Z,3.98
2016-11-12T17:25:58.039Z,4.08
2016-11-12T17:26:57.553Z,4.16
2016-11-12T17:27:57.716Z,4.03
2016-11-12T17:28:58.299Z,4.18
2016-11-12T17:29:57.264Z,4.11
2016-11-12T17:30:57.601Z,4.03
2016-11-12T17:31:57.616Z,4.21
2016-11-12T17:32:57.874Z,4.04
2016-11-12T17:33:57.533Z,4.13
2016-11-12T17:34:57.816Z,4.08
2016-11-12T17:35:57.526Z,4.19
2016-11-12T17:36:57.423Z,4.1
2016-11-12T17:37:57.724Z,3.89
2016-11-12T17:38:56.774Z,3.92
2016-11-12T17:39:57.269Z,3.78
2016-11-12T17:40:56.942Z,3.68
2016-11-12T17:41:57.334Z,3.74
2016-11-12T17:42:57.589Z,3.97
2016-11-12T17:43:57.185Z,4.05
2016-11-12T17:44:56.843Z,3.92
2016-11-12T17:45:56.624Z,3.8
2016-11-12T17:46:57.527Z,3.78
2016-11-12T17:47:57.094Z,3.85
2016-11-12T17:48:57.166Z,3.8
2016-11-12T17:49:57.750Z,3.86
2016-11-12T17:50:56.735Z,3.75
2016-11-12T17:51:57.704Z,3.92
2016-11-12T17:52:56.453Z,3.93
2016-11-12T17:53:56.666Z,3.97
2016-11-12T17:54:56.916Z,4.08
2016-11-12T17:55:57.012Z,3.89
2016-11-12T17:56:56.550Z,3.79
2016-11-12T17:57:57.178Z,3.62
2016-11-12T17:58:56.905Z,3.53
2016-11-12T17:59:56.938Z,3.53
2016-11-12T18:00:56.186Z,3.53
2016-11-12T18:01:56.117Z,3.42
2016-11-12T18:02:57.051Z,3.46
2016-11-12T18:03:57.425Z,3.19
2016-11-12T18:04:57.405Z,3.07
2016-11-12T18:05:56.364Z,3.07
2016-11-12T18:06:56.745Z,3.24
2016-11-12T18:07:56.798Z,3.4
2016-11-12T18:08:56.935Z,3.46
2016-11-12T18:09:57.133Z,3.46
2016-11-12T18:10:56.892Z,3.47
2016-11-12T18:11:56.486Z,3.52
2016-11-12T18:12:57.173Z,3.53
2016-11-12T18:13:56.426Z,3.6
2016-11-12T18:14:56.494Z,3.67
2016-11-12T18:15:56.060Z,3.71
2016-11-12T18:16:56.448Z,3.79
2016-11-12T18:17:56.419Z,4.05
2016-11-12T18:18:56.354Z,3.92
2016-11-12T18:19:57.035Z,3.74
2016-11-12T18:20:57.019Z,3.68
2016-11-12T18:21:56.945Z,3.67
2016-11-12T18:22:56.184Z,3.52
2016-11-12T18:23:55.644Z,3.5
2016-11-12T18:24:56.511Z,3.47
2016-11-12T18:25:55.615Z,3.54
2016-11-12T18:26:56.696Z,3.65
2016-11-12T18:27:55.785Z,3.52
2016-11-12T18:28:56.178Z,3.52
2016-11-12T18:29:56.364Z,3.53
2016-11-12T18:30:56.055Z,3.61
2016-11-12T18:31:56.335Z,3.56
2016-11-12T18:32:55.375Z,3.54
2016-11-12T18:33:55.366Z,3.52
2016-11-12T18:34:56.002Z,3.46
2016-11-12T18:35:55.366Z,3.37
2016-11-12T18:36:55.955Z,3.44
2016-11-12T18:37:55.365Z,3.5
2016-11-12T18:38:55.519Z,3.54
2016-11-12T18:39:56.495Z,3.47
2016-11-12T18:40:55.174Z,3.57
2016-11-12T18:41:56.094Z,3.47
2016-11-12T18:42:55.127Z,3.43
2016-11-12T18:43:56.395Z,3.4
2016-11-12T18:44:55.803Z,3.24
2016-11-12T18:45:55.735Z,3.25
2016-11-12T18:46:55.935Z,3.35
2016-11-12T18:47:55.799Z,3.43
2016-11-12T18:48:55.536Z,3.3
2016-11-12T18:49:54.949Z,3.27
2016-11-12T18:50:55.887Z,3.28
2016-11-12T18:51:55.528Z,3.24
2016-11-12T18:52:55.528Z,3.05
2016-11-12T18:53:56.128Z,3.15
2016-11-12T18:54:54.811Z,3.16
2016-11-12T18:55:55.143Z,3.21
2016-11-12T18:56:56.068Z,3.25
2016-11-12T18:57:55.887Z,3.44
2016-11-12T18:58:56.004Z,3.4
2016-11-12T18:59:55.327Z,3.43
2016-11-12T19:00:54.715Z,3.49
2016-11-12T19:01:55.005Z,3.5
2016-11-12T19:02:54.864Z,3.44
2016-11-12T19:03:55.136Z,3.47
2016-11-12T19:04:55.294Z,3.56
2016-11-12T19:05:54.571Z,3.53
2016-11-12T19:06:55.674Z,3.61
2016-11-12T19:07:54.744Z,3.42
2016-11-12T19:08:54.775Z,3.37
2016-11-12T19:09:55.363Z,3.24
2016-11-12T19:10:54.675Z,3.17
2016-11-12T19:11:55.697Z,3.1
2016-11-12T19:12:54.706Z,3.09
2016-11-12T19:13:54.670Z,3.13
2016-11-12T19:14:54.565Z,2.95
2016-11-12T19:15:54.853Z,2.92
2016-11-12T19:16:55.049Z,3.02
2016-11-12T19:17:55.547Z,3.02
2016-11-12T19:18:55.513Z,3.06
2016-11-12T19:19:54.494Z,3.1
2016-11-12T19:20:55.441Z,3.06
2016-11-12T19:21:55.063Z,2.99
2016-11-12T19:22:55.394Z,3.02
2016-11-12T19:23:54.704Z,2.88
2016-11-12T19:24:55.335Z,2.98
2016-11-12T19:25:54.931Z,3.03
2016-11-12T19:26:55.331Z,3.12
2016-11-12T19:27:54.234Z,3.25
2016-11-12T19:28:55.225Z,3.25
2016-11-12T19:29:54.573Z,3.15
2016-11-12T19:30:54.567Z,2.97
2016-11-12T19:31:55.218Z,2.95
2016-11-12T19:32:54.993Z,3.27
2016-11-12T19:33:54.132Z,3.02
2016-11-12T19:34:54.095Z,3.06
2016-11-12T19:35:54.081Z,3.06
2016-11-12T19:36:54.071Z,3.1
2016-11-12T19:37:54.484Z,3.19
2016-11-12T19:38:54.858Z,3.16
2016-11-12T19:39:53.914Z,3.07
2016-11-12T19:40:54.570Z,3.19
2016-11-12T19:41:54.525Z,3.16
2016-11-12T19:42:54.284Z,3.23
2016-11-12T19:43:53.865Z,3.43
2016-11-12T19:44:54.874Z,3.46
2016-11-12T19:45:54.184Z,3.28
2016-11-12T19:46:54.194Z,3.27
2016-11-12T19:47:54.014Z,3.24
2016-11-12T19:48:54.725Z,3.19
2016-11-12T19:49:54.714Z,3.16
2016-11-12T19:50:53.370Z,3.23
2016-11-12T19:51:53.664Z,3.28
2016-11-12T19:52:54.655Z,3.47
2016-11-12T19:53:53.985Z,3.4
2016-11-12T19:54:53.930Z,3.5
2016-11-12T19:55:53.604Z,3.44
2016-11-12T19:56:54.536Z,3.47
2016-11-12T19:57:53.214Z,3.42
2016-11-12T19:58:54.120Z,3.12
2016-11-12T19:59:53.815Z,3.24
2016-11-12T20:00:53.672Z,3.15
2016-11-12T20:01:54.033Z,3.09
2016-11-12T20:02:53.376Z,3.09
2016-11-12T20:03:53.990Z,3.19
2016-11-12T20:04:53.954Z,3.24
2016-11-12T20:05:53.314Z,3.17
2016-11-12T20:06:54.285Z,3.28
2016-11-12T20:07:53.512Z,3.33
2016-11-12T20:08:53.056Z,3.4
2016-11-12T20:09:54.108Z,3.27
2016-11-12T20:10:53.818Z,3.42
2016-11-12T20:11:53.560Z,3.31
2016-11-12T20:12:53.768Z,3.34
2016-11-12T20:13:54.085Z,3.31
2016-11-12T20:14:53.553Z,3.34
2016-11-12T20:15:52.986Z,3.27
2016-11-12T20:16:53.024Z,3.3
2016-11-12T20:17:53.624Z,3.43
2016-11-12T20:18:53.619Z,3.33
2016-11-12T20:19:53.804Z,3.28
2016-11-12T20:20:53.275Z,3.34
2016-11-12T20:21:53.413Z,3.4
2016-11-12T20:22:53.501Z,3.4
2016-11-12T20:23:53.476Z,3.34
2016-11-12T20:24:53.664Z,3.33
2016-11-12T20:25:53.627Z,3.24
2016-11-12T20:26:53.429Z,3.23
2016-11-12T20:27:53.217Z,3.4
2016-11-12T20:28:53.367Z,3.35
2016-11-12T20:29:52.683Z,3.4
2016-11-12T20:30:53.280Z,3.47
2016-11-12T20:31:53.264Z,3.52
2016-11-12T20:32:52.933Z,3.25
2016-11-12T20:33:52.965Z,3.28
2016-11-12T20:34:52.815Z,3.19
2016-11-12T20:35:53.522Z,3.35
2016-11-12T20:36:52.524Z,3.31
2016-11-12T20:37:52.732Z,3.34
2016-11-12T20:38:52.860Z,3.34
2016-11-12T20:39:53.095Z,3.1
2016-11-12T20:40:52.373Z,2.97
2016-11-12T20:41:52.343Z,2.95
2016-11-12T20:42:53.391Z,3.1
2016-11-12T20:43:52.969Z,3.05
2016-11-12T20:44:51.985Z,3.25
2016-11-12T20:45:52.224Z,3.1
2016-11-12T20:46:53.370Z,3.27
2016-11-12T20:47:53.233Z,3.25
2016-11-12T20:48:52.579Z,3.28
2016-11-12T20:49:52.523Z,2.97
2016-11-12T20:50:52.547Z,3.07
2016-11-12T20:51:53.136Z,3.12
2016-11-12T20:52:52.043Z,2.95
2016-11-12T20:53:53.143Z,2.94
2016-11-12T20:54:52.430Z,3.16
2016-11-12T20:55:52.657Z,3.23
2016-11-12T20:56:52.674Z,3.31
2016-11-12T20:57:52.211Z,3.34
2016-11-12T20:58:52.181Z,3.47
2016-11-12T20:59:52.661Z,3.47
2016-11-12T21:00:52.290Z,3.42
2016-11-12T21:01:51.875Z,3.34
2016-11-12T21:02:52.821Z,3.25
2016-11-12T21:03:51.764Z,3.3
2016-11-12T21:04:52.121Z,3.16
2016-11-12T21:05:51.785Z,3.09
2016-11-12T21:06:52.382Z,3.07
2016-11-12T21:07:51.967Z,3.09
2016-11-12T21:08:52.314Z,3.19
2016-11-12T21:09:52.033Z,3.1
2016-11-12T21:10:51.802Z,3.19
2016-11-12T21:11:51.553Z,3.19
2016-11-12T21:12:52.615Z,3.34
2016-11-12T21:13:51.897Z,3.35
2016-11-12T21:14:52.582Z,3.16
2016-11-12T21:15:51.915Z,3.17
2016-11-12T21:16:51.970Z,3.06
2016-11-12T21:17:52.164Z,3.05
2016-11-12T21:18:51.972Z,2.95
2016-11-12T21:19:52.314Z,3.02
2016-11-12T21:20:51.685Z,3.03
2016-11-12T21:21:51.674Z,2.95
2016-11-12T21:22:51.942Z,2.95
2016-11-12T21:23:52.303Z,3.05
2016-11-12T21:24:51.666Z,3.07
2016-11-12T21:25:52.252Z,3.02
2016-11-12T21:26:51.573Z,2.99
2016-11-12T21:27:51.512Z,2.92
2016-11-12T21:28:51.833Z,3.03
2016-11-12T21:29:51.180Z,2.98
2016-11-12T21:30:50.918Z,2.88
2016-11-12T21:31:51.725Z,2.91
2016-11-12T21:32:50.823Z,2.94
2016-11-12T21:33:50.807Z,2.79
2016-11-12T21:34:51.332Z,2.89
2016-11-12T21:35:51.154Z,2.81
2016-11-12T21:36:51.342Z,2.8
2016-11-12T21:37:51.330Z,2.87
2016-11-12T21:38:51.544Z,2.87
2016-11-12T21:39:50.653Z,2.94
2016-11-12T21:40:51.193Z,2.81
2016-11-12T21:41:51.832Z,2.85
2016-11-12T21:42:51.674Z,2.71
2016-11-12T21:43:51.432Z,2.79
2016-11-12T21:44:51.393Z,2.8
2016-11-12T21:45:51.093Z,2.97
2016-11-12T21:46:51.105Z,2.92
2016-11-12T21:47:50.699Z,2.87
2016-11-12T21:48:50.995Z,2.77
2016-11-12T21:49:51.641Z,2.81
2016-11-12T21:50:51.615Z,2.84
2016-11-12T21:51:51.624Z,2.84
2016-11-12T21:52:51.571Z,2.95
2016-11-12T21:53:50.856Z,2.84
2016-11-12T21:54:51.141Z,2.84
2016-11-12T21:55:51.513Z,2.85
2016-11-12T21:56:50.816Z,2.94
2016-11-12T21:57:51.053Z,2.97
2016-11-12T21:58:50.352Z,3.03
2016-11-12T21:59:50.691Z,3.03
2016-11-12T22:00:50.610Z,3.06
2016-11-12T22:01:50.961Z,3.21
2016-11-12T22:02:50.031Z,3.07
2016-11-12T22:03:50.632Z,2.95
2016-11-12T22:04:50.573Z,3.05
2016-11-12T22:05:50.849Z,3.09
2016-11-12T22:06:51.203Z,3.06
2016-11-12T22:07:50.649Z,3.05
2016-11-12T22:08:50.774Z,2.94
2016-11-12T22:09:50.984Z,3.06
2016-11-12T22:10:50.342Z,3.09
2016-11-12T22:11:50.450Z,3.05
2016-11-12T22:12:49.701Z,2.98
2016-11-12T22:13:49.704Z,3.13
2016-11-12T22:14:49.737Z,3.15
2016-11-12T22:15:50.950Z,3.05
2016-11-12T22:16:50.218Z,2.98
2016-11-12T22:17:49.904Z,3.07
2016-11-12T22:18:50.531Z,2.99
2016-11-12T22:19:49.820Z,2.95
2016-11-12T22:20:50.184Z,2.91
2016-11-12T22:21:50.028Z,2.92
2016-11-12T22:22:50.780Z,2.94
2016-11-12T22:23:50.130Z,3.03
2016-11-12T22:24:49.775Z,2.84
2016-11-12T22:25:50.591Z,2.85
2016-11-12T22:26:50.701Z,2.73
2016-11-12T22:27:49.870Z,2.95
2016-11-12T22:28:49.671Z,2.8
2016-11-12T22:29:50.250Z,2.79
2016-11-12T22:30:49.960Z,2.89
2016-11-12T22:31:50.863Z,2.89
2016-11-12T22:32:49.771Z,3.03
2016-11-12T22:33:50.491Z,2.89
2016-11-12T22:34:50.480Z,2.77
2016-11-12T22:35:49.492Z,2.98
2016-11-12T22:36:49.810Z,2.98
2016-11-12T22:37:49.053Z,3.02
2016-11-12T22:38:50.101Z,2.97
2016-11-12T22:39:49.632Z,2.99
2016-11-12T22:40:48.960Z,2.95
2016-11-12T22:41:49.680Z,2.94
2016-11-12T22:42:49.266Z,3.1
2016-11-12T22:43:49.027Z,3.06
2016-11-12T22:44:49.844Z,3.05
2016-11-12T22:45:49.700Z,3.24
2016-11-12T22:46:49.644Z,3.13
2016-11-12T22:47:49.123Z,3.31
2016-11-12T22:48:50.120Z,3.27
2016-11-12T22:49:49.471Z,3.42
2016-11-12T22:50:49.701Z,3.37
2016-11-12T22:51:49.651Z,3.1
2016-11-12T22:52:49.044Z,3.28
2016-11-12T22:53:49.361Z,3.37
2016-11-12T22:54:49.607Z,3.33
2016-11-12T22:55:48.936Z,3.35
2016-11-12T22:56:49.913Z,3.15
2016-11-12T22:57:48.880Z,3.24
2016-11-12T22:58:49.870Z,3.23
2016-11-12T22:59:48.819Z,3.23
2016-11-12T23:00:49.124Z,3.28
2016-11-12T23:01:49.120Z,3.28
2016-11-12T23:02:49.083Z,3.23
2016-11-12T23:03:48.728Z,3.21
2016-11-12T23:04:49.670Z,3.02
2016-11-12T23:05:49.062Z,2.95
2016-11-12T23:06:49.031Z,2.92
2016-11-12T23:07:49.089Z,2.92
2016-11-12T23:08:48.971Z,3.07
2016-11-12T23:09:48.963Z,3.09
2016-11-12T23:10:48.844Z,3.1
2016-11-12T23:11:49.518Z,3.23
2016-11-12T23:12:49.112Z,3.33
2016-11-12T23:13:48.167Z,3.4
2016-11-12T23:14:48.913Z,3.3
2016-11-12T23:15:48.349Z,3.27
2016-11-12T23:16:49.394Z,3.28
2016-11-12T23:17:49.003Z,3.23
2016-11-12T23:18:49.334Z,3.21
2016-11-12T23:19:48.560Z,3.1
2016-11-12T23:20:48.542Z,3.09
2016-11-12T23:21:48.882Z,2.95
2016-11-12T23:22:48.621Z,3.05
2016-11-12T23:23:48.463Z,3.05
2016-11-12T23:24:47.880Z,3.07
2016-11-12T23:25:48.535Z,3.21
2016-11-12T23:26:47.819Z,3.24
2016-11-12T23:27:48.481Z,3.24
2016-11-12T23:28:49.102Z,3.24
2016-11-12T23:29:48.682Z,3.24
2016-11-12T23:30:48.392Z,3.27
2016-11-12T23:31:48.373Z,3.37
2016-11-12T23:32:47.930Z,3.27
2016-11-12T23:33:47.733Z,3.27
2016-11-12T23:34:48.298Z,3.06
2016-11-12T23:35:47.843Z,3.23
2016-11-12T23:36:48.842Z,3.1
2016-11-12T23:37:48.692Z,2.99
2016-11-12T23:38:47.838Z,3.13
2016-11-12T23:39:47.738Z,3.17
2016-11-12T23:40:48.162Z,3.19
2016-11-12T23:41:47.730Z,3.25
2016-11-12T23:42:48.371Z,3.21
2016-11-12T23:43:48.061Z,3.27
2016-11-12T23:44:48.508Z,3.28
2016-11-12T23:45:48.660Z,3.35
2016-11-12T23:46:48.681Z,3.37
2016-11-12T23:47:48.599Z,3.53
2016-11-12T23:48:48.540Z,3.4
2016-11-12T23:49:48.206Z,3.3
2016-11-12T23:50:48.491Z,3.24
2016-11-12T23:51:47.839Z,3.23
2016-11-12T23:52:48.451Z,3.24
2016-11-12T23:53:47.803Z,3.21
2016-11-12T23:54:47.461Z,3.1
2016-11-12T23:55:47.721Z,3.21
2016-11-12T23:56:48.383Z,3.24
2016-11-12T23:57:47.096Z,3.17
2016-11-12T23:58:47.971Z,3.02
2016-11-12T23:59:47.033Z,3.13
